Terminal Aerodrome Forecast
Issued by NWS

Home | Current Version | Previous Version | Graphics & Text | Print | Product List | Glossary On
Versions: 1 2 3 4 5 6 7 8 9 10 11 12 13 14 15 16 17 18 19 20 21
000
FTUS43 KUNR 261300 AAA
TAFGCC
TAF AMD
KGCC 261319Z 2613/2712 27008KT P6SM BKN012
      TEMPO 2613/2617 SCT012 OVC060
     FM261700 17009KT P6SM BKN020
     FM270500 17008KT P6SM OVC070=

USA.gov is the U.S. government's official web portal to all federal, state and local government web resources and services.